Time;durP1;ratioP1;P1;durP2;ratioP2;P2;SDS_P1;SDS_P2;PMS_P1;PMS_P2;Temp;Humidity;BMP_temperature;BMP_pressure;BME280_temperature;BME280_humidity;BME280_pressure;Samples;Min_cycle;Max_cycle;Signal;HPM_P1;HPM_P2
2023/12/14 04:29:42;;;;;;;;;;;;;;;;;;;;;
2023/12/14 05:47:52;;;;;;;;;;;;;;;;;;;;;
2023/12/14 06:08:48;;;;;;;1.90;0.98;;;;;;;7.45;59.59;98635.28;5150053;27;20074;-96
2023/12/14 06:11:16;;;;;;;2.53;0.60;;;;;;;7.55;59.60;98644.41;5220345;27;20030;-96
2023/12/14 06:13:50;;;;;;;3.55;0.85;;;;;;;7.84;59.60;98631.22;5227621;27;20109;-96
2023/12/14 06:16:30;;;;;;;0.35;0.35;;;;;;;7.85;59.62;98632.06;5244697;27;20072;-96
2023/12/14 06:19:32;;;;;;;1.37;0.85;;;;;;;7.87;59.61;98635.41;5288581;27;20039;-96
2023/12/14 06:22:05;;;;;;;0.13;0.13;;;;;;;7.86;59.61;98638.91;5294757;27;20241;-96
2023/12/14 06:24:46;;;;;;;3.92;3.35;;;;;;;7.56;59.60;98640.91;5329054;26;20069;-96
2023/12/14 06:27:50;;;;;;;1.75;1.65;;;;;;;7.38;59.58;98643.28;5344947;26;20039;-96
2023/12/14 06:30:22;;;;;;;2.50;1.70;;;;;;;7.41;59.59;98647.50;5341165;26;20033;-96
2023/12/14 06:33:25;;;;;;;0.70;0.55;;;;;;;7.52;59.59;98647.94;5359409;26;20036;-96
2023/12/14 06:36:21;;;;;;;3.10;2.83;;;;;;;7.62;59.61;98657.06;5360794;26;20016;-96
2023/12/14 06:39:01;;;;;;;0.82;0.82;;;;;;;7.55;59.60;98658.19;5359745;26;20024;-96
2023/12/14 06:42:01;;;;;;;0.37;0.37;;;;;;;7.64;59.60;98663.03;5359328;26;20021;-96
2023/12/14 06:44:41;;;;;;;0.85;0.85;;;;;;;7.55;59.60;98659.94;5338818;26;20061;-96
2023/12/14 06:47:16;;;;;;;0.90;0.40;;;;;;;7.50;59.60;98674.81;5338936;26;20103;-96
2023/12/14 06:49:58;;;;;;;1.87;1.77;;;;;;;7.41;59.59;98678.59;5359296;26;20029;-96
2023/12/14 06:52:29;;;;;;;0.30;0.30;;;;;;;7.39;59.58;98673.47;5335111;26;20028;-96
2023/12/14 06:55:10;;;;;;;1.40;1.30;;;;;;;7.46;59.58;98686.19;5357920;26;20055;-96
2023/12/14 06:58:24;;;;;;;3.40;3.12;;;;;;;7.52;59.59;98685.94;5343758;26;20065;-96
2023/12/14 07:01:03;;;;;;;1.52;1.42;;;;;;;7.42;59.59;98689.78;5339773;26;20158;-96
2023/12/14 07:03:49;;;;;;;1.73;1.62;;;;;;;7.57;59.60;98692.66;5340087;26;20056;-96
2023/12/14 07:09:34;;;;;;;1.55;0.95;;;;;;;7.52;59.59;98706.66;5359138;26;20064;-96
2023/12/14 07:12:27;;;;;;;4.12;1.52;;;;;;;7.41;59.59;98714.81;5347028;26;20060;-96
2023/12/14 07:15:07;;;;;;;1.05;0.93;;;;;;;7.40;59.59;98715.72;5360961;26;20035;-96
2023/12/14 07:17:45;;;;;;;4.68;1.73;;;;;;;7.62;59.59;98724.41;5341757;26;20020;-96
2023/12/14 07:21:13;;;;;;;0.62;0.62;;;;;;;7.64;59.60;98729.53;5355982;26;20103;-95
2023/12/14 07:24:51;;;;;;;1.95;1.48;;;;;;;7.62;59.59;98733.94;5254046;27;20080;-96
2023/12/14 07:33:06;;;;;;;2.05;1.27;;;;;;;7.44;59.59;98743.19;5323655;26;20076;-96
2023/12/14 07:35:51;;;;;;;0.60;0.43;;;;;;;7.43;59.59;98745.84;5316585;27;20052;-96
2023/12/14 07:39:00;;;;;;;;;;;;;;;;;;;;;
2023/12/14 07:42:05;;;;;;;1.08;1.05;;;;;;;7.74;59.60;98749.00;5313899;27;35256;-96
2023/12/14 07:44:59;;;;;;;1.65;1.55;;;;;;;7.89;59.62;98756.22;5295064;27;20025;-96
2023/12/14 07:47:25;;;;;;;1.40;1.37;;;;;;;7.79;59.61;98766.97;5293386;27;20182;-96
2023/12/14 07:50:17;;;;;;;0.17;0.17;;;;;;;7.89;59.62;98766.59;5292373;27;20049;-96
2023/12/14 07:52:54;;;;;;;0.65;0.65;;;;;;;8.06;59.62;98758.19;5328426;26;20043;-96
2023/12/14 07:55:53;;;;;;;1.40;1.20;;;;;;;7.80;59.61;98769.50;5340992;26;20088;-96
2023/12/14 07:59:10;;;;;;;0.85;0.82;;;;;;;7.85;59.62;98761.59;5360867;26;20028;-96
2023/12/14 08:02:30;;;;;;;2.42;1.62;;;;;;;7.94;59.62;98769.00;5316833;27;20099;-96
2023/12/14 08:06:03;;;;;;;2.58;0.77;;;;;;;7.97;59.62;98774.06;5317157;27;20029;-96
2023/12/14 08:09:13;;;;;;;4.12;2.33;;;;;;;7.97;59.62;98769.75;5314883;27;20080;-96
2023/12/14 08:12:32;;;;;;;0.62;0.43;;;;;;;7.88;59.62;98782.19;5316315;26;20045;-96
2023/12/14 08:15:39;;;;;;;0.30;0.30;;;;;;;7.80;59.61;98789.37;5312618;27;20040;-96
2023/12/14 08:18:47;;;;;;;3.00;2.72;;;;;;;8.01;59.63;98792.03;5309351;27;20029;-96
2023/12/14 08:22:28;;;;;;;;;;;;;;;;;;;;;
2023/12/14 08:26:14;;;;;;;;;;;;;;;;;;;;;
2023/12/14 08:29:01;;;;;;;1.23;0.80;;;;;;;8.17;59.63;98815.66;5165154;27;35551;-96
2023/12/14 08:32:18;;;;;;;0.82;0.82;;;;;;;8.22;59.63;98821.50;5145357;27;20044;-96
2023/12/14 08:35:23;;;;;;;0.30;0.30;;;;;;;8.37;59.63;98829.66;5234804;27;20033;-96
2023/12/14 08:41:44;;;;;;;0.98;0.65;;;;;;;8.13;59.63;98829.63;5309492;27;20125;-96
2023/12/14 08:45:00;;;;;;;3.20;2.42;;;;;;;8.13;59.63;98837.41;5296615;26;20053;-96
2023/12/14 08:48:25;;;;;;;;;;;;;;;;;;;;;
2023/12/14 08:51:55;;;;;;;0.82;0.57;;;;;;;8.23;59.63;98841.34;5316343;27;35539;-96
2023/12/14 08:55:22;;;;;;;0.20;0.20;;;;;;;8.37;59.63;98837.44;5275179;27;20038;-96
2023/12/14 08:58:11;;;;;;;0.37;0.37;;;;;;;8.39;59.64;98840.81;5250039;27;20087;-96
2023/12/14 09:00:38;;;;;;;2.30;1.33;;;;;;;8.37;59.65;98848.66;5325359;27;20064;-96
2023/12/14 09:03:04;;;;;;;1.33;1.23;;;;;;;8.37;59.63;98847.81;5309668;27;20052;-96
2023/12/14 09:05:48;;;;;;;5.10;1.30;;;;;;;8.53;59.66;98849.78;5313152;27;20060;-96
2023/12/14 09:08:40;;;;;;;0.60;0.60;;;;;;;8.48;59.64;98856.00;5329901;27;20068;-96
2023/12/14 09:11:41;;;;;;;4.37;2.83;;;;;;;8.64;59.66;98856.28;5335048;27;20021;-96
2023/12/14 09:14:29;;;;;;;6.72;3.15;;;;;;;8.64;59.66;98861.47;5306007;27;20053;-96
2023/12/14 09:17:04;;;;;;;1.65;1.55;;;;;;;8.58;59.65;98862.56;5330945;26;20032;-96
2023/12/14 09:19:33;;;;;;;0.90;0.90;;;;;;;8.39;59.64;98861.56;5309902;27;20059;-96
2023/12/14 09:22:19;;;;;;;1.73;1.42;;;;;;;8.57;59.65;98866.06;5312177;27;20020;-96
2023/12/14 09:25:02;;;;;;;0.88;0.80;;;;;;;8.54;59.65;98863.59;5351827;26;20054;-96
2023/12/14 09:27:38;;;;;;;0.30;0.30;;;;;;;8.54;59.65;98864.44;5357354;26;20111;-96
2023/12/14 09:30:17;;;;;;;0.62;0.62;;;;;;;8.54;59.65;98863.59;5359897;26;20024;-96
2023/12/14 09:32:46;;;;;;;1.35;1.25;;;;;;;8.47;59.65;98869.88;5358609;26;20879;-96
2023/12/14 09:35:54;;;;;;;0.37;0.37;;;;;;;8.64;59.65;98869.25;5360256;26;20046;-96
2023/12/14 09:38:36;;;;;;;1.08;0.98;;;;;;;8.63;59.65;98883.97;5349309;26;20056;-96
2023/12/14 09:41:08;;;;;;;2.35;2.12;;;;;;;8.97;59.67;98890.44;5378304;26;20141;-96
2023/12/14 09:43:56;;;;;;;;;;;;;;;;;;;;;
2023/12/14 09:46:30;;;;;;;0.40;0.40;;;;;;;9.04;59.67;98884.12;5377446;26;35537;-96
2023/12/14 09:49:06;;;;;;;1.25;1.25;;;;;;;9.06;59.68;98882.31;5378603;26;20020;-96
2023/12/14 09:52:01;;;;;;;0.68;0.68;;;;;;;9.05;59.68;98889.25;5347210;26;20080;-96
2023/12/14 09:54:34;;;;;;;2.60;1.20;;;;;;;9.10;59.68;98882.13;5380679;26;20059;-96
2023/12/14 09:57:03;;;;;;;0.55;0.52;;;;;;;9.12;59.67;98884.66;5376842;26;20026;-96
2023/12/14 09:59:42;;;;;;;1.67;1.45;;;;;;;9.14;59.68;98888.87;5318675;26;20063;-96
2023/12/14 10:02:35;;;;;;;0.70;0.70;;;;;;;9.02;59.67;98889.38;5357201;26;20060;-96
2023/12/14 10:05:23;;;;;;;1.25;1.20;;;;;;;8.98;59.68;98905.97;5359289;26;20028;-96
2023/12/14 10:08:11;;;;;;;1.25;1.10;;;;;;;8.96;59.67;98906.94;5355700;26;20020;-96
2023/12/14 10:14:20;;;;;;;1.10;1.00;;;;;;;9.01;59.68;98907.62;5257958;27;20073;-96
2023/12/14 10:17:28;;;;;;;0.75;0.75;;;;;;;9.09;59.68;98914.19;5263992;27;20030;-96
2023/12/14 10:20:33;;;;;;;;;;;;;;;;;;;;;
2023/12/14 10:24:02;;;;;;;;;;;;;;;;;;;;;
2023/12/14 10:53:34;;;;;;;0.40;0.40;;;;;;;9.23;59.69;98950.84;5180898;27;20038;-96
2023/12/14 10:56:24;;;;;;;2.37;1.83;;;;;;;9.10;59.68;98953.97;5181961;27;20155;-96
2023/12/14 11:06:51;;;;;;;;;;;;;;;;;;;;;
2023/12/14 11:13:38;;;;;;;1.65;1.55;;;;;;;9.62;59.71;98959.69;5228185;27;20052;-96
2023/12/14 11:17:13;;;;;;;1.08;1.08;;;;;;;9.72;59.71;98968.84;5209239;27;20027;-96
2023/12/14 11:23:09;;;;;;;0.37;0.37;;;;;;;9.74;59.72;98969.59;5174700;27;20082;-96
2023/12/14 11:26:25;;;;;;;0.25;0.25;;;;;;;9.78;59.71;98965.97;5157565;27;20028;-96
2023/12/14 11:29:56;;;;;;;1.00;1.00;;;;;;;9.57;59.71;98972.87;5200098;27;20070;-96
2023/12/14 11:42:20;;;;;;;0.52;0.52;;;;;;;9.60;59.71;98983.16;5217637;27;20058;-95
2023/12/14 11:51:41;;;;;;;2.03;0.90;;;;;;;9.54;59.70;98975.59;5228012;27;20050;-95
2023/12/14 11:58:22;;;;;;;1.05;0.68;;;;;;;9.31;59.69;98973.91;5256801;27;20113;-96
2023/12/14 12:05:26;;;;;;;2.65;0.80;;;;;;;9.54;59.71;98986.00;5191343;27;20027;-95
2023/12/14 12:16:02;;;;;;;;;;;;;;;;;;;;;
2023/12/14 12:22:26;;;;;;;;;;;;;;;;;;;;;
2023/12/14 14:49:35;;;;;;;;;;;;;;;;;;;;;
2023/12/14 15:21:13;;;;;;;0.37;0.35;;;;;;;9.60;59.71;99274.16;4917567;29;20110;-95
2023/12/14 15:31:57;;;;;;;;;;;;;;;;;;;;;
2023/12/14 15:36:04;;;;;;;;;;;;;;;;;;;;;
2023/12/14 15:42:58;;;;;;;3.03;0.70;;;;;;;9.52;59.70;99322.97;4981541;28;20065;-94
2023/12/14 16:20:04;;;;;;;0.80;0.55;;;;;;;8.95;59.67;99360.31;5048342;28;20092;-93
2023/12/14 16:23:07;;;;;;;;;;;;;;;;;;;;;
2023/12/14 17:16:43;;;;;;;1.45;1.35;;;;;;;8.18;59.63;99460.25;5037865;28;20072;-94
2023/12/14 17:23:09;;;;;;;1.48;0.45;;;;;;;7.92;59.62;99473.91;5082092;28;20159;-94
2023/12/14 17:26:27;;;;;;;0.30;0.30;;;;;;;8.05;59.62;99481.38;5035398;28;20121;-94
2023/12/14 19:38:50;;;;;;;;;;;;;;;;;;;;;
2023/12/14 19:49:47;;;;;;;;;;;;;;;;;;;;;
2023/12/14 19:54:13;;;;;;;;;;;;;;;;;;;;;
2023/12/14 21:56:12;;;;;;;;;;;;;;;;;;;;;
2023/12/14 21:59:31;;;;;;;;;;;;;;;;;;;;;
2023/12/14 22:06:30;;;;;;;;;;;;;;;;;;;;;
2023/12/14 22:09:40;;;;;;;0.62;0.62;;;;;;;7.55;59.60;99870.25;5189966;27;35787;-95
2023/12/14 22:27:10;;;;;;;;;;;;;;;;;;;;;
2023/12/14 22:30:48;;;;;;;;;;;;;;;;;;;;;
2023/12/14 22:43:24;;;;;;;0.55;0.55;;;;;;;8.11;59.62;99912.44;5147769;27;20076;-93
2023/12/14 22:46:02;;;;;;;;;;;;;;;;;;;;;
2023/12/14 22:52:10;;;;;;;0.93;0.90;;;;;;;8.26;59.63;99934.59;5253054;27;20164;-92
2023/12/14 22:55:14;;;;;;;;;;;;;;;;;;;;;
2023/12/14 22:58:00;;;;;;;;;;;;;;;;;;;;;
2023/12/14 23:01:21;;;;;;;;;;;;;;;;;;;;;
